createdAt,value
2023-03-17T00:00:42.898Z,1006.7
2023-03-17T00:01:59.900Z,1006.7
2023-03-17T00:03:16.921Z,1006.7
2023-03-17T00:04:33.881Z,1006.7
2023-03-17T00:05:50.900Z,1006.7
2023-03-17T00:07:07.901Z,1006.7
2023-03-17T00:08:24.908Z,1006.6
2023-03-17T00:09:41.879Z,1006.6
2023-03-17T00:10:58.884Z,1006.6
2023-03-17T00:12:15.914Z,1006.6
2023-03-17T00:13:32.878Z,1006.6
2023-03-17T00:14:49.940Z,1006.6
2023-03-17T00:16:07.008Z,1006.6
2023-03-17T00:17:23.902Z,1006.6
2023-03-17T00:18:40.902Z,1006.6
2023-03-17T00:19:57.906Z,1006.6
2023-03-17T00:21:14.901Z,1006.6
2023-03-17T00:22:31.917Z,1006.6
2023-03-17T00:23:48.901Z,1006.6
2023-03-17T00:25:05.889Z,1006.7
2023-03-17T00:26:22.953Z,1006.6
2023-03-17T00:27:39.964Z,1006.6
2023-03-17T00:28:56.895Z,1006.6
2023-03-17T00:30:13.923Z,1006.6
2023-03-17T00:31:30.936Z,1006.6
2023-03-17T00:32:47.950Z,1006.6
2023-03-17T00:34:04.957Z,1006.7
2023-03-17T00:35:21.909Z,1006.7
2023-03-17T00:36:39.168Z,1006.6
2023-03-17T00:37:56.834Z,1006.6
2023-03-17T00:39:16.497Z,1006.6
2023-03-17T00:40:32.929Z,1006.6
2023-03-17T00:41:49.926Z,1006.6
2023-03-17T00:43:06.938Z,1006.6
2023-03-17T00:44:23.926Z,1006.6
2023-03-17T00:45:40.998Z,1006.6
2023-03-17T00:46:58.030Z,1006.5
2023-03-17T00:48:14.961Z,1006.5
2023-03-17T00:49:32.046Z,1006.5
2023-03-17T00:50:48.918Z,1006.5
2023-03-17T00:52:05.966Z,1006.4
2023-03-17T00:53:22.982Z,1006.4
2023-03-17T00:54:39.948Z,1006.3
2023-03-17T00:55:56.925Z,1006.3
2023-03-17T00:57:14.030Z,1006.2
2023-03-17T00:58:30.944Z,1006.2
2023-03-17T00:59:48.167Z,1006.2
2023-03-17T01:01:05.028Z,1006.2
2023-03-17T01:02:22.061Z,1006.2
2023-03-17T01:03:38.975Z,1006.2
2023-03-17T01:05:03.929Z,1006.2
2023-03-17T01:06:12.934Z,1006.2
2023-03-17T01:07:30.003Z,1006.1
2023-03-17T01:08:46.960Z,1006.1
2023-03-17T01:10:03.972Z,1006
2023-03-17T01:11:21.383Z,1006
2023-03-17T01:12:38.091Z,1005.9
2023-03-17T01:13:54.953Z,1005.9
2023-03-17T01:15:11.998Z,1005.9
2023-03-17T01:16:29.160Z,1005.9
2023-03-17T01:17:45.949Z,1005.9
2023-03-17T01:19:03.106Z,1005.9
2023-03-17T01:20:19.970Z,1005.9
2023-03-17T01:21:36.986Z,1005.9
2023-03-17T01:22:53.980Z,1005.9
2023-03-17T01:24:11.258Z,1005.9
2023-03-17T01:25:28.001Z,1005.8
2023-03-17T01:26:44.963Z,1005.8
2023-03-17T01:28:01.973Z,1005.7
2023-03-17T01:29:19.048Z,1005.6
2023-03-17T01:30:36.028Z,1005.6
2023-03-17T01:31:53.098Z,1005.6
2023-03-17T01:33:09.983Z,1005.6
2023-03-17T01:34:27.005Z,1005.6
2023-03-17T01:35:44.153Z,1005.6
2023-03-17T01:37:00.982Z,1005.7
2023-03-17T01:38:17.976Z,1005.7
2023-03-17T01:39:35.063Z,1005.7
2023-03-17T01:40:52.040Z,1005.7
2023-03-17T01:42:09.037Z,1005.6
2023-03-17T01:43:25.989Z,1005.7
2023-03-17T01:44:43.056Z,1005.7
2023-03-17T01:46:00.043Z,1005.7
2023-03-17T01:47:17.028Z,1005.8
2023-03-17T01:48:34.062Z,1005.8
2023-03-17T01:49:51.006Z,1005.7
2023-03-17T01:51:08.012Z,1005.7
2023-03-17T01:52:25.012Z,1005.7
2023-03-17T01:53:42.022Z,1005.6
2023-03-17T01:55:00.585Z,1005.6
2023-03-17T01:56:19.392Z,1005.6
2023-03-17T01:57:36.116Z,1005.5
2023-03-17T01:58:53.013Z,1005.4
2023-03-17T02:00:10.048Z,1005.5
2023-03-17T02:01:27.487Z,1005.4
2023-03-17T02:02:44.129Z,1005.5
2023-03-17T02:04:01.269Z,1005.4
2023-03-17T02:05:18.030Z,1005.5
2023-03-17T02:06:44.677Z,1005.4
2023-03-17T02:07:54.050Z,1005.5
2023-03-17T02:09:11.150Z,1005.4
2023-03-17T02:10:28.351Z,1005.4
2023-03-17T02:11:45.112Z,1005.4
2023-03-17T02:13:02.103Z,1005.4
2023-03-17T02:14:19.234Z,1005.4
2023-03-17T02:15:36.138Z,1005.4
2023-03-17T02:16:53.238Z,1005.4
2023-03-17T02:18:10.201Z,1005.3
2023-03-17T02:19:27.261Z,1005.3
2023-03-17T02:22:45.031Z,1005.3
2023-03-17T02:24:02.106Z,1005.3
2023-03-17T02:25:19.769Z,1005.3
2023-03-17T02:26:37.056Z,1005.2
2023-03-17T02:27:54.192Z,1005.2
2023-03-17T02:29:11.141Z,1005.2
2023-03-17T02:30:28.429Z,1005.2
2023-03-17T02:31:45.082Z,1005.3
2023-03-17T02:33:02.162Z,1005.3
2023-03-17T02:34:19.200Z,1005.3
2023-03-17T02:35:36.589Z,1005.3
2023-03-17T02:36:53.844Z,1005.3
2023-03-17T02:38:11.086Z,1005.3
2023-03-17T02:39:28.056Z,1005.3
2023-03-17T02:40:45.146Z,1005.3
2023-03-17T02:42:02.120Z,1005.3
2023-03-17T02:43:19.087Z,1005.3
2023-03-17T02:44:36.087Z,1005.2
2023-03-17T02:45:53.125Z,1005.3
2023-03-17T02:47:10.081Z,1005.3
2023-03-17T02:48:27.096Z,1005.3
2023-03-17T02:49:44.400Z,1005.4
2023-03-17T02:51:01.124Z,1005.4
2023-03-17T02:52:18.149Z,1005.3
2023-03-17T02:53:35.147Z,1005.4
2023-03-17T02:54:52.150Z,1005.4
2023-03-17T02:56:09.126Z,1005.4
2023-03-17T02:57:26.104Z,1005.4
2023-03-17T02:58:43.090Z,1005.3
2023-03-17T03:00:00.191Z,1005.3
2023-03-17T03:01:17.182Z,1005.3
2023-03-17T03:02:34.254Z,1005.3
2023-03-17T03:03:51.257Z,1005.3
2023-03-17T03:05:08.148Z,1005.3
2023-03-17T03:06:25.146Z,1005.3
2023-03-17T03:07:42.130Z,1005.3
2023-03-17T03:08:59.147Z,1005.3
2023-03-17T03:10:16.089Z,1005.3
2023-03-17T03:11:33.183Z,1005.3
2023-03-17T03:12:50.128Z,1005.3
2023-03-17T03:14:07.104Z,1005.3
2023-03-17T03:15:24.114Z,1005.3
2023-03-17T03:16:41.133Z,1005.3
2023-03-17T03:17:58.112Z,1005.3
2023-03-17T03:19:15.118Z,1005.3
2023-03-17T03:20:32.426Z,1005.3
2023-03-17T03:21:49.226Z,1005.3
2023-03-17T03:23:06.130Z,1005.3
2023-03-17T03:24:23.134Z,1005.3
2023-03-17T03:25:40.111Z,1005.3
2023-03-17T03:26:57.172Z,1005.1
2023-03-17T03:28:14.123Z,1005.1
2023-03-17T03:29:31.121Z,1005.2
2023-03-17T03:30:48.170Z,1005.2
2023-03-17T03:32:05.165Z,1005.2
2023-03-17T03:33:22.169Z,1005.2
2023-03-17T03:34:39.143Z,1005.1
2023-03-17T03:35:56.232Z,1005.2
2023-03-17T03:37:13.654Z,1005.2
2023-03-17T03:38:30.199Z,1005.2
2023-03-17T03:39:47.133Z,1005.2
2023-03-17T03:41:04.438Z,1005.2
2023-03-17T03:42:21.177Z,1005.2
2023-03-17T03:43:38.138Z,1005.2
2023-03-17T03:44:55.263Z,1005.2
2023-03-17T03:46:12.162Z,1005.1
2023-03-17T03:47:29.148Z,1005.1
2023-03-17T03:48:46.150Z,1005.1
2023-03-17T03:50:03.149Z,1005.1
2023-03-17T03:51:20.249Z,1005.1
2023-03-17T03:52:37.200Z,1005
2023-03-17T03:53:54.711Z,1005
2023-03-17T03:55:11.178Z,1005
2023-03-17T03:56:28.198Z,1005
2023-03-17T03:57:45.154Z,1005
2023-03-17T03:59:02.168Z,1005
2023-03-17T04:00:19.153Z,1005
2023-03-17T04:01:36.287Z,1005
2023-03-17T04:02:53.333Z,1004.8
2023-03-17T04:04:10.250Z,1004.9
2023-03-17T04:05:27.650Z,1004.9
2023-03-17T04:06:44.297Z,1004.9
2023-03-17T04:08:01.648Z,1004.9
2023-03-17T04:09:18.781Z,1004.8
2023-03-17T04:10:36.179Z,1004.8
2023-03-17T04:11:53.191Z,1004.8
2023-03-17T04:13:10.175Z,1004.8
2023-03-17T04:14:27.212Z,1004.8
2023-03-17T04:15:44.858Z,1004.8
2023-03-17T04:17:02.183Z,1004.7
2023-03-17T04:18:19.204Z,1004.7
2023-03-17T04:19:36.199Z,1004.8
2023-03-17T04:20:53.415Z,1004.8
2023-03-17T04:22:10.319Z,1004.8
2023-03-17T04:23:27.178Z,1004.7
2023-03-17T04:24:44.197Z,1004.7
2023-03-17T04:26:01.192Z,1004.7
2023-03-17T04:27:18.226Z,1004.6
2023-03-17T04:28:35.259Z,1004.6
2023-03-17T04:29:52.194Z,1004.7
2023-03-17T04:31:10.293Z,1004.7
2023-03-17T04:32:27.375Z,1004.7
2023-03-17T04:33:44.489Z,1004.7
2023-03-17T04:35:01.220Z,1004.7
2023-03-17T04:36:18.243Z,1004.7
2023-03-17T04:37:35.456Z,1004.8
2023-03-17T04:38:52.215Z,1004.7
2023-03-17T04:40:09.217Z,1004.8
2023-03-17T04:41:26.314Z,1004.7
2023-03-17T04:42:43.208Z,1004.8
2023-03-17T04:44:00.197Z,1004.8
2023-03-17T04:45:17.772Z,1004.8
2023-03-17T04:46:34.283Z,1004.8
2023-03-17T04:47:51.449Z,1004.9
2023-03-17T04:49:08.873Z,1004.9
2023-03-17T04:50:26.226Z,1004.9
2023-03-17T04:51:43.282Z,1004.9
2023-03-17T04:53:00.305Z,1004.9
2023-03-17T04:54:17.244Z,1004.9
2023-03-17T04:55:34.244Z,1004.9
2023-03-17T04:56:51.252Z,1004.8
2023-03-17T04:58:09.221Z,1004.9
2023-03-17T04:59:25.260Z,1004.9
2023-03-17T05:00:42.335Z,1004.9
2023-03-17T05:01:59.336Z,1004.9
2023-03-17T05:03:26.291Z,1004.9
2023-03-17T05:04:33.232Z,1004.8
2023-03-17T05:05:50.250Z,1004.8
2023-03-17T05:07:07.257Z,1004.8
2023-03-17T05:08:24.274Z,1004.8
2023-03-17T05:09:41.241Z,1004.8
2023-03-17T05:10:58.356Z,1004.8
2023-03-17T05:12:15.338Z,1004.8
2023-03-17T05:13:32.348Z,1004.7
2023-03-17T05:14:49.263Z,1004.7
2023-03-17T05:16:06.788Z,1004.6
2023-03-17T05:17:23.302Z,1004.6
2023-03-17T05:18:40.258Z,1004.6
2023-03-17T05:19:57.267Z,1004.5
2023-03-17T05:21:14.375Z,1004.5
2023-03-17T05:22:31.309Z,1004.6
2023-03-17T05:23:48.291Z,1004.6
2023-03-17T05:25:05.736Z,1004.5
2023-03-17T05:26:22.268Z,1004.4
2023-03-17T05:27:39.440Z,1004.4
2023-03-17T05:28:57.100Z,1004.5
2023-03-17T05:30:14.265Z,1004.4
2023-03-17T05:31:31.281Z,1004.4
2023-03-17T05:32:48.363Z,1004.2
2023-03-17T05:34:05.302Z,1004.2
2023-03-17T05:35:22.288Z,1004.2
2023-03-17T05:36:40.216Z,1004.2
2023-03-17T05:37:57.417Z,1004.2
2023-03-17T05:39:14.828Z,1004.3
2023-03-17T05:40:31.604Z,1004.4
2023-03-17T05:41:48.348Z,1004.4
2023-03-17T05:43:05.329Z,1004.4
2023-03-17T05:44:22.323Z,1004.4
2023-03-17T05:45:39.320Z,1004.4
2023-03-17T05:46:57.000Z,1004.5
2023-03-17T05:48:14.345Z,1004.5
2023-03-17T05:49:31.301Z,1004.4
2023-03-17T05:50:48.372Z,1004.3
2023-03-17T05:52:05.351Z,1004.2
2023-03-17T05:53:22.360Z,1004.1
2023-03-17T05:54:39.503Z,1004.1
2023-03-17T05:55:56.382Z,1004.1
2023-03-17T05:57:13.428Z,1004.1
2023-03-17T05:58:30.419Z,1004
2023-03-17T05:59:47.351Z,1004
2023-03-17T06:01:04.309Z,1004
2023-03-17T06:02:21.346Z,1004
2023-03-17T06:03:38.399Z,1004
2023-03-17T06:04:55.393Z,1004.1
2023-03-17T06:06:12.458Z,1004
2023-03-17T06:07:41.117Z,1004
2023-03-17T06:08:49.967Z,1004
2023-03-17T06:10:07.496Z,1004
2023-03-17T06:11:25.318Z,1004
2023-03-17T06:12:42.608Z,1004.1
2023-03-17T06:14:00.835Z,1004
2023-03-17T06:15:18.760Z,1003.9
2023-03-17T06:16:36.487Z,1003.8
2023-03-17T06:17:53.589Z,1003.8
2023-03-17T06:19:10.745Z,1003.7
2023-03-17T06:20:29.069Z,1003.7
2023-03-17T06:21:47.205Z,1003.7
2023-03-17T06:23:05.718Z,1003.7
2023-03-17T06:24:22.558Z,1003.7
2023-03-17T06:25:39.679Z,1003.8
2023-03-17T06:26:56.538Z,1003.7
2023-03-17T06:28:13.598Z,1003.7
2023-03-17T06:29:30.952Z,1003.7
2023-03-17T06:30:48.608Z,1003.7
2023-03-17T06:32:19.117Z,1003.7
2023-03-17T06:33:22.392Z,1003.7
2023-03-17T06:34:39.385Z,1003.7
2023-03-17T06:35:56.494Z,1003.7
2023-03-17T06:37:13.390Z,1003.8
2023-03-17T06:38:30.382Z,1003.9
2023-03-17T06:39:47.368Z,1003.9
2023-03-17T06:41:04.448Z,1003.8
2023-03-17T06:42:21.411Z,1003.8
2023-03-17T06:43:38.386Z,1003.9
2023-03-17T06:44:55.439Z,1003.9
2023-03-17T06:46:12.404Z,1003.8
2023-03-17T06:47:29.406Z,1003.8
2023-03-17T06:48:46.413Z,1003.8
2023-03-17T06:50:03.508Z,1003.8
2023-03-17T06:51:20.498Z,1003.8
2023-03-17T06:52:37.404Z,1003.8
2023-03-17T06:53:54.427Z,1003.9
2023-03-17T06:55:11.427Z,1003.9
2023-03-17T06:56:30.402Z,1003.9
2023-03-17T06:57:45.379Z,1004
2023-03-17T06:59:02.431Z,1003.9
2023-03-17T07:00:19.471Z,1003.9
2023-03-17T07:01:36.434Z,1003.9
2023-03-17T07:02:53.411Z,1003.9
2023-03-17T07:04:10.478Z,1003.8
2023-03-17T07:05:28.265Z,1003.8
2023-03-17T07:06:45.985Z,1003.8
2023-03-17T07:08:02.402Z,1003.8
2023-03-17T07:09:19.449Z,1003.8
2023-03-17T07:10:36.447Z,1003.8
2023-03-17T07:11:53.469Z,1003.8
2023-03-17T07:13:10.408Z,1003.8
2023-03-17T07:14:27.400Z,1003.8
2023-03-17T07:15:44.444Z,1003.8
2023-03-17T07:17:01.420Z,1003.8
2023-03-17T07:18:18.700Z,1003.9
2023-03-17T07:19:35.834Z,1004
2023-03-17T07:20:52.421Z,1004
2023-03-17T07:22:10.462Z,1004.1
2023-03-17T07:23:27.448Z,1004.1
2023-03-17T07:24:44.467Z,1004.2
2023-03-17T07:26:01.431Z,1004.2
2023-03-17T07:27:19.855Z,1004.2
2023-03-17T07:28:35.476Z,1004.2
2023-03-17T07:29:52.601Z,1004.2
2023-03-17T07:31:09.586Z,1004.2
2023-03-17T07:32:26.457Z,1004.2
2023-03-17T07:33:43.484Z,1004.2
2023-03-17T07:35:00.698Z,1004.3
2023-03-17T07:36:17.452Z,1004.3
2023-03-17T07:37:34.482Z,1004.2
2023-03-17T07:38:52.299Z,1004.2
2023-03-17T07:40:09.459Z,1004.3
2023-03-17T07:41:27.085Z,1004.3
2023-03-17T07:42:44.509Z,1004.3
2023-03-17T07:44:01.506Z,1004.3
2023-03-17T07:45:18.469Z,1004.3
2023-03-17T07:46:35.468Z,1004.3
2023-03-17T07:47:52.712Z,1004.2
2023-03-17T07:49:09.479Z,1004.2
2023-03-17T07:50:26.455Z,1004.1
2023-03-17T07:51:43.463Z,1004
2023-03-17T07:53:00.513Z,1003.9
2023-03-17T07:54:17.461Z,1004
2023-03-17T07:55:34.467Z,1004
2023-03-17T07:56:51.534Z,1004
2023-03-17T07:58:09.022Z,1004
2023-03-17T07:59:26.433Z,1003.9
2023-03-17T08:00:43.615Z,1003.9
2023-03-17T08:02:00.613Z,1004
2023-03-17T08:03:17.536Z,1004
2023-03-17T08:04:34.966Z,1004
2023-03-17T08:05:51.556Z,1004
2023-03-17T08:07:09.055Z,1004.1
2023-03-17T08:08:26.538Z,1004
2023-03-17T08:09:43.591Z,1003.9
2023-03-17T08:11:00.537Z,1003.9
2023-03-17T08:12:17.529Z,1003.9
2023-03-17T08:13:34.545Z,1003.9
2023-03-17T08:14:51.622Z,1004
2023-03-17T08:16:08.587Z,1004
2023-03-17T08:17:25.569Z,1004.1
2023-03-17T08:18:42.577Z,1004
2023-03-17T08:19:59.817Z,1004.1
2023-03-17T08:21:17.522Z,1004.1
2023-03-17T08:22:35.765Z,1004.1
2023-03-17T08:23:52.863Z,1004
2023-03-17T08:25:10.850Z,1004
2023-03-17T08:26:27.712Z,1003.9
2023-03-17T08:27:46.133Z,1003.9
2023-03-17T08:29:04.925Z,1004
2023-03-17T08:30:23.470Z,1004
2023-03-17T08:31:40.725Z,1004.1
2023-03-17T08:32:57.762Z,1004.1
2023-03-17T08:34:16.034Z,1004.1
2023-03-17T08:35:33.248Z,1004.1
2023-03-17T08:36:50.286Z,1004.1
2023-03-17T08:38:08.877Z,1004.1
2023-03-17T08:39:26.764Z,1004.1
2023-03-17T08:40:43.964Z,1004.1
2023-03-17T08:42:03.326Z,1004
2023-03-17T08:43:20.991Z,1004
2023-03-17T08:44:39.338Z,1004
2023-03-17T08:45:56.832Z,1004.1
2023-03-17T08:47:13.730Z,1004
2023-03-17T08:48:30.769Z,1004
2023-03-17T08:49:47.781Z,1004
2023-03-17T08:51:05.150Z,1004
2023-03-17T08:52:22.574Z,1004.1
2023-03-17T08:53:39.894Z,1004.1
2023-03-17T08:54:57.928Z,1004.1
2023-03-17T08:56:16.277Z,1004.1
2023-03-17T08:57:34.036Z,1004.1
2023-03-17T08:58:51.972Z,1004.1
2023-03-17T09:00:09.792Z,1004.1
2023-03-17T09:01:28.208Z,1004.1
2023-03-17T09:02:46.237Z,1004.2
2023-03-17T09:04:03.878Z,1004.1
2023-03-17T09:05:21.906Z,1004.1
2023-03-17T09:06:46.446Z,1004.2
2023-03-17T09:07:56.782Z,1004.3
2023-03-17T09:09:14.446Z,1004.4
2023-03-17T09:10:31.999Z,1004.3
2023-03-17T09:11:48.715Z,1004.3
2023-03-17T09:13:05.981Z,1004.3
2023-03-17T09:14:22.900Z,1004.3
2023-03-17T09:15:39.808Z,1004.3
2023-03-17T09:16:57.767Z,1004.3
2023-03-17T09:18:15.093Z,1004.3
2023-03-17T09:19:33.098Z,1004.3
2023-03-17T09:20:51.308Z,1004.3
2023-03-17T09:22:08.983Z,1004.3
2023-03-17T09:23:27.038Z,1004.3
2023-03-17T09:24:44.889Z,1004.3
2023-03-17T09:26:03.058Z,1004.3
2023-03-17T09:27:20.822Z,1004.3
2023-03-17T09:28:37.849Z,1004.3
2023-03-17T09:29:54.786Z,1004.3
2023-03-17T09:31:12.051Z,1004.3
2023-03-17T09:32:30.540Z,1004.3
2023-03-17T09:33:47.761Z,1004.4
2023-03-17T09:35:04.805Z,1004.4
2023-03-17T09:36:22.005Z,1004.4
2023-03-17T09:37:39.862Z,1004.3
2023-03-17T09:38:57.753Z,1004.3
2023-03-17T09:40:14.874Z,1004.3
2023-03-17T09:41:33.060Z,1004.2
2023-03-17T09:42:50.980Z,1004.2
2023-03-17T09:44:08.870Z,1004.1
2023-03-17T09:45:26.793Z,1004.1
2023-03-17T09:46:47.247Z,1004.1
2023-03-17T09:48:04.839Z,1004
2023-03-17T09:49:21.808Z,1004
2023-03-17T09:50:38.792Z,1004
2023-03-17T09:51:55.803Z,1004
2023-03-17T09:53:12.822Z,1004
2023-03-17T09:54:29.849Z,1004.1
2023-03-17T09:55:46.902Z,1004.1
2023-03-17T09:57:03.862Z,1004.1
2023-03-17T09:58:20.786Z,1004.2
2023-03-17T09:59:38.006Z,1004.3
2023-03-17T10:00:55.884Z,1004.3
2023-03-17T10:02:12.990Z,1004.3
2023-03-17T10:03:30.877Z,1004.3
2023-03-17T10:04:48.008Z,1004.2
2023-03-17T10:06:05.048Z,1004.1
2023-03-17T10:07:23.408Z,1004.1
2023-03-17T10:08:41.003Z,1004.1
2023-03-17T10:09:59.001Z,1004.1
2023-03-17T10:11:15.911Z,1004.2
2023-03-17T10:12:32.846Z,1004.2
2023-03-17T10:13:51.205Z,1004.3
2023-03-17T10:15:07.881Z,1004.2
2023-03-17T10:16:24.898Z,1004.3
2023-03-17T10:17:41.839Z,1004.2
2023-03-17T10:18:58.883Z,1004.2
2023-03-17T10:20:15.944Z,1004.2
2023-03-17T10:21:32.902Z,1004.2
2023-03-17T10:22:49.870Z,1004.2
2023-03-17T10:24:07.524Z,1004.2
2023-03-17T10:25:24.857Z,1004.2
2023-03-17T10:26:42.125Z,1004.2
2023-03-17T10:27:58.883Z,1004.1
2023-03-17T10:29:15.992Z,1004.1
2023-03-17T10:30:34.016Z,1004.1
2023-03-17T10:31:52.152Z,1004
2023-03-17T10:33:10.644Z,1004
2023-03-17T10:34:28.048Z,1004
2023-03-17T10:35:45.066Z,1004
2023-03-17T10:37:03.117Z,1004
2023-03-17T10:38:21.124Z,1003.9
2023-03-17T10:39:38.932Z,1003.9
2023-03-17T10:40:56.996Z,1003.9
2023-03-17T10:42:14.877Z,1004
2023-03-17T10:43:32.485Z,1004
2023-03-17T10:44:49.915Z,1004.1
2023-03-17T10:46:06.988Z,1004.1
2023-03-17T10:47:25.153Z,1003.9
2023-03-17T10:48:43.085Z,1004
2023-03-17T10:50:02.163Z,1004
2023-03-17T10:51:20.021Z,1004
2023-03-17T10:52:38.078Z,1004.1
2023-03-17T10:53:56.137Z,1004.1
2023-03-17T10:55:14.873Z,1004.1
2023-03-17T10:56:33.586Z,1004
2023-03-17T10:57:50.872Z,1004
2023-03-17T10:59:08.041Z,1003.9
2023-03-17T11:00:25.073Z,1003.9
2023-03-17T11:01:43.492Z,1003.8
2023-03-17T11:03:00.895Z,1003.9
2023-03-17T11:04:17.999Z,1003.8
2023-03-17T11:05:34.958Z,1003.8
2023-03-17T11:06:52.413Z,1003.8
2023-03-17T11:08:10.018Z,1003.8
2023-03-17T11:09:26.899Z,1003.7
2023-03-17T11:10:44.953Z,1003.7
2023-03-17T11:12:01.928Z,1003.6
2023-03-17T11:13:20.002Z,1003.6
2023-03-17T11:14:37.997Z,1003.5
2023-03-17T11:15:55.037Z,1003.4
2023-03-17T11:17:12.608Z,1003.3
2023-03-17T11:18:31.990Z,1003.3
2023-03-17T11:19:48.000Z,1003.4
2023-03-17T11:21:05.004Z,1003.4
2023-03-17T11:22:21.944Z,1003.4
2023-03-17T11:23:39.008Z,1003.4
2023-03-17T11:24:56.023Z,1003.4
2023-03-17T11:26:12.990Z,1003.4
2023-03-17T11:27:30.965Z,1003.4
2023-03-17T11:28:48.168Z,1003.4
2023-03-17T11:30:06.068Z,1003.3
2023-03-17T11:31:23.129Z,1003.3
2023-03-17T11:32:41.040Z,1003.3
2023-03-17T11:33:58.939Z,1003.3
2023-03-17T11:35:16.128Z,1003.3
2023-03-17T11:36:33.029Z,1003.3
2023-03-17T11:37:50.105Z,1003.2
2023-03-17T11:39:08.964Z,1003.3
2023-03-17T11:40:26.444Z,1003.3
2023-03-17T11:41:44.478Z,1003.2
2023-03-17T11:43:02.020Z,1003.2
2023-03-17T11:44:19.312Z,1003.2
2023-03-17T11:45:37.124Z,1003.2
2023-03-17T11:46:54.075Z,1003.1
2023-03-17T11:48:12.016Z,1003.1
2023-03-17T11:49:28.988Z,1003
2023-03-17T11:50:46.069Z,1003
2023-03-17T11:52:03.025Z,1002.9
2023-03-17T11:53:20.999Z,1002.9
2023-03-17T11:54:38.229Z,1002.8
2023-03-17T11:55:56.034Z,1002.8
2023-03-17T11:57:13.297Z,1002.8
2023-03-17T11:58:31.353Z,1002.9
2023-03-17T11:59:49.374Z,1002.9
2023-03-17T12:01:07.546Z,1002.9
2023-03-17T12:02:25.075Z,1002.9
2023-03-17T12:03:43.155Z,1002.9
2023-03-17T12:05:01.612Z,1002.9
2023-03-17T12:06:19.110Z,1002.9
2023-03-17T12:07:38.584Z,1002.9
2023-03-17T12:08:56.137Z,1002.9
2023-03-17T12:10:13.252Z,1002.9
2023-03-17T12:11:31.239Z,1002.8
2023-03-17T12:12:49.177Z,1002.8
2023-03-17T12:14:07.132Z,1002.8
2023-03-17T12:15:23.952Z,1002.8
2023-03-17T12:16:41.042Z,1002.7
2023-03-17T12:17:58.316Z,1002.6
2023-03-17T12:19:16.441Z,1002.7
2023-03-17T12:20:34.162Z,1002.6
2023-03-17T12:21:51.051Z,1002.6
2023-03-17T12:23:08.596Z,1002.5
2023-03-17T12:24:26.066Z,1002.5
2023-03-17T12:25:43.248Z,1002.4
2023-03-17T12:27:01.455Z,1002.4
2023-03-17T12:28:19.067Z,1002.4
2023-03-17T12:29:36.717Z,1002.4
2023-03-17T12:30:54.238Z,1002.4
2023-03-17T12:32:11.611Z,1002.4
2023-03-17T12:33:29.201Z,1002.3
2023-03-17T12:34:50.691Z,1002.3
2023-03-17T12:36:08.096Z,1002.3
2023-03-17T12:37:25.137Z,1002.2
2023-03-17T12:38:42.175Z,1002.2
2023-03-17T12:40:00.609Z,1002.2
2023-03-17T12:41:18.340Z,1002.2
2023-03-17T12:42:36.270Z,1002.3
2023-03-17T12:43:54.326Z,1002.3
2023-03-17T12:45:12.311Z,1002.3
2023-03-17T12:46:30.256Z,1002.3
2023-03-17T12:47:48.422Z,1002.4
2023-03-17T12:49:06.104Z,1002.3
2023-03-17T12:50:23.079Z,1002.4
2023-03-17T12:51:40.121Z,1002.4
2023-03-17T12:52:57.225Z,1002.4
2023-03-17T12:54:15.081Z,1002.4
2023-03-17T12:55:32.408Z,1002.4
2023-03-17T12:56:49.100Z,1002.3
2023-03-17T12:58:07.108Z,1002.3
2023-03-17T12:59:23.872Z,1002.3
2023-03-17T13:00:40.982Z,1002.3
2023-03-17T13:01:57.963Z,1002.3
2023-03-17T13:03:14.958Z,1002.3
2023-03-17T13:04:31.880Z,1002.3
2023-03-17T13:05:48.911Z,1002.3
2023-03-17T13:07:05.895Z,1002.3
2023-03-17T13:08:22.927Z,1002.3
2023-03-17T13:09:39.952Z,1002.3
2023-03-17T13:10:57.282Z,1002.3
2023-03-17T13:12:13.955Z,1002.2
2023-03-17T13:13:30.891Z,1002.3
2023-03-17T13:14:47.907Z,1002.3
2023-03-17T13:16:04.919Z,1002.2
2023-03-17T13:17:21.993Z,1002.3
2023-03-17T13:18:38.898Z,1002.3
2023-03-17T13:19:55.932Z,1002.2
2023-03-17T13:21:12.942Z,1002.2
2023-03-17T13:22:29.897Z,1002.2
2023-03-17T13:23:47.008Z,1002.1
2023-03-17T13:25:03.922Z,1002.2
2023-03-17T13:26:20.964Z,1002.2
2023-03-17T13:27:37.964Z,1002.2
2023-03-17T13:28:54.952Z,1002.2
2023-03-17T13:30:11.927Z,1002.2
2023-03-17T13:31:28.975Z,1002.2
2023-03-17T13:32:46.031Z,1002.1
2023-03-17T13:34:02.971Z,1002.1
2023-03-17T13:35:19.925Z,1002.1
2023-03-17T13:36:36.938Z,1002.1
2023-03-17T13:37:53.928Z,1002.1
2023-03-17T13:39:19.143Z,1002.1
2023-03-17T13:40:27.943Z,1002
2023-03-17T13:41:45.142Z,1002
2023-03-17T13:43:01.963Z,1002
2023-03-17T13:44:18.976Z,1002
2023-03-17T13:45:36.140Z,1002
2023-03-17T13:46:53.026Z,1002
2023-03-17T13:48:09.967Z,1001.9
2023-03-17T13:49:26.985Z,1001.9
2023-03-17T13:50:44.069Z,1001.9
2023-03-17T13:52:00.956Z,1001.9
2023-03-17T13:53:17.954Z,1001.9
2023-03-17T13:54:35.078Z,1002
2023-03-17T13:55:52.094Z,1002
2023-03-17T13:57:09.038Z,1002
2023-03-17T13:58:26.033Z,1002
2023-03-17T13:59:43.005Z,1001.9
2023-03-17T14:01:00.049Z,1001.9
2023-03-17T14:02:16.992Z,1001.9
2023-03-17T14:03:34.042Z,1001.9
2023-03-17T14:04:50.968Z,1002
2023-03-17T14:06:08.081Z,1001.9
2023-03-17T14:07:25.017Z,1001.9
2023-03-17T14:08:42.026Z,1001.9
2023-03-17T14:09:59.009Z,1001.9
2023-03-17T14:11:15.973Z,1001.9
2023-03-17T14:12:32.986Z,1001.9
2023-03-17T14:13:50.008Z,1001.9
2023-03-17T14:15:08.343Z,1001.9
2023-03-17T14:16:24.071Z,1001.8
2023-03-17T14:17:40.975Z,1001.9
2023-03-17T14:18:58.018Z,1001.9
2023-03-17T14:20:15.051Z,1001.9
2023-03-17T14:21:31.985Z,1001.9
2023-03-17T14:22:49.660Z,1001.9
2023-03-17T14:24:07.127Z,1001.9
2023-03-17T14:25:24.822Z,1001.9
2023-03-17T14:26:42.987Z,1001.9
2023-03-17T14:28:00.003Z,1001.9
2023-03-17T14:29:17.001Z,1001.9
2023-03-17T14:30:34.072Z,1001.8
2023-03-17T14:31:51.037Z,1001.8
2023-03-17T14:33:08.059Z,1001.8
2023-03-17T14:34:25.018Z,1001.8
2023-03-17T14:35:42.138Z,1001.8
2023-03-17T14:36:59.024Z,1001.8
2023-03-17T14:38:16.050Z,1001.8
2023-03-17T14:39:33.024Z,1001.8
2023-03-17T14:40:50.093Z,1001.7
2023-03-17T14:42:07.032Z,1001.7
2023-03-17T14:43:24.034Z,1001.7
2023-03-17T14:44:41.028Z,1001.7
2023-03-17T14:45:58.214Z,1001.6
2023-03-17T14:47:15.037Z,1001.6
2023-03-17T14:48:32.474Z,1001.6
2023-03-17T14:49:49.355Z,1001.6
2023-03-17T14:51:07.868Z,1001.6
2023-03-17T14:52:26.223Z,1001.6
2023-03-17T14:53:43.574Z,1001.5
2023-03-17T14:55:01.342Z,1001.5
2023-03-17T14:56:18.668Z,1001.5
2023-03-17T14:57:36.923Z,1001.5
2023-03-17T14:58:54.320Z,1001.5
2023-03-17T15:00:11.948Z,1001.4
2023-03-17T15:01:29.372Z,1001.5
2023-03-17T15:02:48.331Z,1001.5
2023-03-17T15:04:06.308Z,1001.4
2023-03-17T15:05:23.590Z,1001.4
2023-03-17T15:06:42.319Z,1001.4
2023-03-17T15:08:04.736Z,1001.4
2023-03-17T15:09:26.386Z,1001.4
2023-03-17T15:10:43.351Z,1001.5
2023-03-17T15:12:00.966Z,1001.4
2023-03-17T15:13:18.424Z,1001.4
2023-03-17T15:14:36.663Z,1001.4
2023-03-17T15:15:54.447Z,1001.4
2023-03-17T15:17:12.392Z,1001.3
2023-03-17T15:18:29.705Z,1001.3
2023-03-17T15:19:47.292Z,1001.3
2023-03-17T15:21:04.365Z,1001.3
2023-03-17T15:22:21.562Z,1001.3
2023-03-17T15:23:39.860Z,1001.3
2023-03-17T15:25:00.009Z,1001.3
2023-03-17T15:26:18.351Z,1001.3
2023-03-17T15:27:35.464Z,1001.3
2023-03-17T15:28:53.572Z,1001.3
2023-03-17T15:30:12.983Z,1001.3
2023-03-17T15:31:30.897Z,1001.3
2023-03-17T15:32:49.359Z,1001.2
2023-03-17T15:34:07.358Z,1001.2
2023-03-17T15:35:25.088Z,1001.2
2023-03-17T15:36:42.464Z,1001.2
2023-03-17T15:38:00.421Z,1001.2
2023-03-17T15:39:17.590Z,1001.2
2023-03-17T15:40:35.357Z,1001.2
2023-03-17T15:41:53.022Z,1001.2
2023-03-17T15:43:12.674Z,1001.2
2023-03-17T15:44:31.302Z,1001.2
2023-03-17T15:45:48.358Z,1001.2
2023-03-17T15:47:07.138Z,1001.2
2023-03-17T15:48:24.360Z,1001.3
2023-03-17T15:49:43.069Z,1001.2
2023-03-17T15:51:01.682Z,1001.2
2023-03-17T15:52:20.457Z,1001.2
2023-03-17T15:53:38.375Z,1001.3
2023-03-17T15:54:55.444Z,1001.2
2023-03-17T15:56:13.531Z,1001.2
2023-03-17T15:57:31.345Z,1001.2
2023-03-17T15:58:48.393Z,1001.2
2023-03-17T16:00:05.182Z,1001.2
2023-03-17T16:01:22.236Z,1001.3
2023-03-17T16:02:39.232Z,1001.2
2023-03-17T16:03:56.323Z,1001.3
2023-03-17T16:05:13.198Z,1001.3
2023-03-17T16:06:30.229Z,1001.3
2023-03-17T16:07:47.206Z,1001.3
2023-03-17T16:09:04.470Z,1001.3
2023-03-17T16:10:21.195Z,1001.3
2023-03-17T16:11:40.329Z,1001.3
2023-03-17T16:12:55.268Z,1001.3